createdAt,value
2023-05-11T00:00:37.205Z,101503.94
2023-05-11T00:03:03.964Z,101492.94
2023-05-11T00:05:30.520Z,101492.94
2023-05-11T00:07:57.053Z,101497.66
2023-05-11T00:10:23.651Z,101495.84
2023-05-11T00:12:50.122Z,101490.09
2023-05-11T00:15:16.673Z,101494.38
2023-05-11T00:17:43.165Z,101498.66
2023-05-11T00:20:10.062Z,101502.53
2023-05-11T00:22:36.712Z,101489.59
2023-05-11T00:25:03.396Z,101482.03
2023-05-11T00:27:29.908Z,101471.78
2023-05-11T00:29:56.735Z,101471.34
2023-05-11T00:32:23.382Z,101476.38
2023-05-11T00:34:49.915Z,101481.28
2023-05-11T00:37:16.377Z,101482.88
2023-05-11T00:39:42.848Z,101486.44
2023-05-11T00:42:10.723Z,101494.13
2023-05-11T00:44:37.312Z,101488.47
2023-05-11T00:47:03.963Z,101490.69
2023-05-11T00:49:31.218Z,101491.00
2023-05-11T00:51:57.858Z,101482.25
2023-05-11T00:54:24.895Z,101490.59
2023-05-11T00:56:51.823Z,101492.81
2023-05-11T00:59:18.806Z,101486.00
2023-05-11T01:01:45.530Z,101488.66
2023-05-11T01:04:12.700Z,101492.19
2023-05-11T01:06:54.747Z,101483.88
2023-05-11T01:09:35.623Z,101480.56
2023-05-11T01:12:48.141Z,101488.56
2023-05-11T01:15:19.224Z,101487.94
2023-05-11T01:18:02.915Z,101492.09
2023-05-11T01:20:30.682Z,101495.84
2023-05-11T01:23:00.046Z,101499.69
2023-05-11T01:25:39.897Z,101495.22
2023-05-11T01:28:40.881Z,101501.41
2023-05-11T01:31:10.775Z,101505.69
2023-05-11T01:33:44.105Z,101503.13
2023-05-11T01:36:12.678Z,101499.72
2023-05-11T01:38:41.872Z,101494.81
2023-05-11T01:41:16.344Z,101494.50
2023-05-11T01:43:45.647Z,101485.72
2023-05-11T01:46:15.893Z,101485.72
2023-05-11T01:48:45.996Z,101491.81
2023-05-11T01:51:16.001Z,101497.28
2023-05-11T01:53:45.002Z,101505.41
2023-05-11T01:56:12.572Z,101506.59
2023-05-11T01:58:41.741Z,101501.25
2023-05-11T02:01:11.050Z,101503.59
2023-05-11T02:03:39.631Z,101499.88
2023-05-11T02:06:07.940Z,101499.44
2023-05-11T02:08:38.213Z,101502.09
2023-05-11T02:11:06.981Z,101504.34
2023-05-11T02:13:36.293Z,101500.63
2023-05-11T02:16:05.443Z,101509.16
2023-05-11T02:18:33.350Z,101502.34
2023-05-11T02:21:01.283Z,101508.41
2023-05-11T02:23:31.126Z,101505.09
2023-05-11T02:25:58.225Z,101510.13
2023-05-11T02:28:25.074Z,101515.03
2023-05-11T02:30:55.760Z,101514.28
2023-05-11T02:33:31.244Z,101509.69
2023-05-11T02:35:59.508Z,101512.03
2023-05-11T02:38:33.625Z,101507.47
2023-05-11T02:41:09.191Z,101507.03
2023-05-11T02:43:40.619Z,101509.81
2023-05-11T02:46:11.743Z,101514.78
2023-05-11T02:48:42.795Z,101510.31
2023-05-11T02:51:12.354Z,101504.66
2023-05-11T02:53:46.799Z,101507.75
2023-05-11T02:56:13.905Z,101502.94
2023-05-11T02:58:41.023Z,101506.38
2023-05-11T03:01:16.960Z,101512.03
2023-05-11T03:03:44.005Z,101514.69
2023-05-11T03:06:10.664Z,101519.28
2023-05-11T03:08:37.542Z,101527.28
2023-05-11T03:11:05.067Z,101518.53
2023-05-11T03:13:32.716Z,101510.94
2023-05-11T03:16:02.741Z,101511.69
2023-05-11T03:18:32.225Z,101507.22
2023-05-11T03:21:01.408Z,101507.97
2023-05-11T03:23:29.752Z,101513.28
2023-05-11T03:25:57.921Z,101510.94
2023-05-11T03:28:25.870Z,101505.19
2023-05-11T03:30:59.461Z,101505.09
2023-05-11T03:33:26.341Z,101502.00
2023-05-11T03:35:54.246Z,101502.72
2023-05-11T03:38:24.603Z,101487.59
2023-05-11T03:40:54.673Z,101496.00
2023-05-11T03:43:22.062Z,101494.94
2023-05-11T03:45:53.219Z,101497.72
2023-05-11T03:48:23.262Z,101490.03
2023-05-11T03:50:51.866Z,101493.47
2023-05-11T03:53:18.975Z,101493.13
2023-05-11T03:55:45.578Z,101490.47
2023-05-11T03:58:12.182Z,101487.06
2023-05-11T04:00:40.257Z,101484.38
2023-05-11T04:03:08.610Z,101498.47
2023-05-11T04:05:35.585Z,101493.56
2023-05-11T04:08:05.821Z,101492.84
2023-05-11T04:10:32.300Z,101497.44
2023-05-11T04:12:59.015Z,101500.38
2023-05-11T04:15:25.598Z,101501.13
2023-05-11T04:17:52.137Z,101503.19
2023-05-11T04:20:18.714Z,101501.06
2023-05-11T04:22:45.561Z,101509.06
2023-05-11T04:25:13.562Z,101510.66
2023-05-11T04:27:40.285Z,101510.22
2023-05-11T04:30:08.292Z,101518.66
2023-05-11T04:32:34.936Z,101517.91
2023-05-11T04:35:01.956Z,101521.63
2023-05-11T04:37:32.051Z,101526.13
2023-05-11T04:40:00.429Z,101521.84
2023-05-11T04:42:26.932Z,101524.38
2023-05-11T04:44:56.062Z,101521.63
2023-05-11T04:47:22.617Z,101521.28
2023-05-11T04:49:49.430Z,101519.94
2023-05-11T04:52:16.012Z,101522.19
2023-05-11T04:54:45.231Z,101518.31
2023-05-11T04:57:11.727Z,101523.97
2023-05-11T04:59:38.543Z,101526.94
2023-05-11T05:02:05.067Z,101524.59
2023-05-11T05:04:32.946Z,101523.09
2023-05-11T05:07:00.910Z,101530.69
2023-05-11T05:09:27.413Z,101521.31
2023-05-11T05:11:53.868Z,101518.03
2023-05-11T05:14:20.363Z,101533.38
2023-05-11T05:16:46.939Z,101535.94
2023-05-11T05:19:13.527Z,101534.03
2023-05-11T05:21:40.701Z,101537.44
2023-05-11T05:24:11.009Z,101538.59
2023-05-11T05:26:37.676Z,101539.78
2023-05-11T05:29:05.844Z,101542.19
2023-05-11T05:31:32.338Z,101538.13
2023-05-11T05:33:59.280Z,101546.34
2023-05-11T05:36:25.972Z,101544.94
2023-05-11T05:38:52.498Z,101548.56
2023-05-11T05:41:19.059Z,101554.44
2023-05-11T05:43:45.995Z,101555.19
2023-05-11T05:46:14.414Z,101555.28
2023-05-11T05:48:41.634Z,101562.97
2023-05-11T05:51:09.118Z,101564.38
2023-05-11T05:53:35.826Z,101570.31
2023-05-11T05:56:02.274Z,101567.53
2023-05-11T05:58:29.282Z,101574.69
2023-05-11T06:00:56.152Z,101577.66
2023-05-11T06:03:28.542Z,101572.50
2023-05-11T06:05:56.762Z,101577.31
2023-05-11T06:08:23.546Z,101581.34
2023-05-11T06:10:50.103Z,101580.50
2023-05-11T06:13:17.249Z,101591.81
2023-05-11T06:15:44.463Z,101582.63
2023-05-11T06:18:24.694Z,101588.16
2023-05-11T06:20:51.677Z,101591.75
2023-05-11T06:23:18.969Z,101592.38
2023-05-11T06:25:45.544Z,101593.44
2023-05-11T06:28:12.475Z,101588.41
2023-05-11T06:30:38.937Z,101583.38
2023-05-11T06:33:07.718Z,101589.66
2023-05-11T06:35:36.877Z,101591.31
2023-05-11T06:38:05.443Z,101596.44
2023-05-11T06:40:32.709Z,101590.03
2023-05-11T06:42:59.622Z,101596.03
2023-05-11T06:45:41.816Z,101596.38
2023-05-11T06:48:08.788Z,101591.50
2023-05-11T06:50:35.276Z,101598.84
2023-05-11T06:53:01.832Z,101598.75
2023-05-11T06:55:29.647Z,101611.97
2023-05-11T06:57:56.202Z,101602.50
2023-05-11T07:00:22.771Z,101604.50
2023-05-11T07:02:49.367Z,101601.09
2023-05-11T07:05:16.034Z,101598.56
2023-05-11T07:07:43.078Z,101597.53
2023-05-11T07:10:10.271Z,101598.59
2023-05-11T07:12:37.188Z,101602.47
2023-05-11T07:15:04.044Z,101594.47
2023-05-11T07:17:30.565Z,101594.97
2023-05-11T07:19:57.101Z,101593.50
2023-05-11T07:22:23.563Z,101600.38
2023-05-11T07:24:50.040Z,101598.88
2023-05-11T07:27:16.606Z,101595.03
2023-05-11T07:29:43.444Z,101602.78
2023-05-11T07:32:09.828Z,101595.63
2023-05-11T07:34:36.468Z,101603.66
2023-05-11T07:37:03.002Z,101605.00
2023-05-11T07:39:29.437Z,101604.56
2023-05-11T07:41:55.844Z,101606.91
2023-05-11T07:44:22.371Z,101608.75
2023-05-11T07:46:48.962Z,101604.22
2023-05-11T07:49:20.759Z,101605.28
2023-05-11T07:51:54.596Z,101610.97
2023-05-11T07:54:21.901Z,101602.28
2023-05-11T07:56:48.469Z,101607.88
2023-05-11T07:59:14.913Z,101604.91
2023-05-11T08:01:41.559Z,101611.59
2023-05-11T08:04:08.055Z,101608.75
2023-05-11T08:06:34.633Z,101612.19
2023-05-11T08:09:01.118Z,101613.75
2023-05-11T08:11:27.641Z,101613.59
2023-05-11T08:13:54.124Z,101618.22
2023-05-11T08:16:20.625Z,101612.97
2023-05-11T08:18:47.658Z,101618.47
2023-05-11T08:21:14.441Z,101618.41
2023-05-11T08:23:41.315Z,101611.88
2023-05-11T08:26:09.848Z,101620.47
2023-05-11T08:28:36.353Z,101622.34
2023-05-11T08:31:02.892Z,101619.81
2023-05-11T08:35:59.060Z,101616.00
2023-05-11T08:38:25.708Z,101618.44
2023-05-11T08:40:52.861Z,101620.69
2023-05-11T08:43:19.361Z,101617.13
2023-05-11T08:45:49.824Z,101618.34
2023-05-11T08:48:21.032Z,101618.25
2023-05-11T08:50:47.852Z,101621.22
2023-05-11T08:53:14.725Z,101614.69
2023-05-11T08:55:42.663Z,101623.25
2023-05-11T08:58:09.929Z,101626.41
2023-05-11T09:00:37.398Z,101624.53
2023-05-11T09:03:04.907Z,101620.25
2023-05-11T09:05:32.500Z,101610.19
2023-05-11T09:08:04.940Z,101614.69
2023-05-11T09:10:32.505Z,101614.28
2023-05-11T09:12:58.965Z,101612.44
2023-05-11T09:15:25.454Z,101617.66
2023-05-11T09:17:51.969Z,101613.13
2023-05-11T09:20:29.122Z,101616.25
2023-05-11T09:22:56.417Z,101611.66
2023-05-11T09:25:24.399Z,101609.53
2023-05-11T09:27:50.927Z,101609.53
2023-05-11T09:30:22.361Z,101613.78
2023-05-11T09:32:53.375Z,101614.16
2023-05-11T09:35:34.390Z,101615.81
2023-05-11T09:38:09.107Z,101612.75
2023-05-11T09:40:39.771Z,101615.94
2023-05-11T09:43:17.524Z,101604.94
2023-05-11T09:45:46.357Z,101618.25
2023-05-11T09:48:19.023Z,101605.69
2023-05-11T09:50:46.117Z,101606.50
2023-05-11T09:53:12.714Z,101609.69
2023-05-11T09:55:39.175Z,101613.38
2023-05-11T09:58:05.635Z,101612.44
2023-05-11T10:00:32.196Z,101603.63
2023-05-11T10:03:01.445Z,101612.31
2023-05-11T10:05:28.286Z,101612.81
2023-05-11T10:08:03.916Z,101603.31
2023-05-11T10:10:32.560Z,101610.00
2023-05-11T10:13:03.397Z,101607.75
2023-05-11T10:15:32.249Z,101606.06
2023-05-11T10:18:02.577Z,101616.97
2023-05-11T10:20:29.125Z,101607.53
2023-05-11T10:22:56.085Z,101618.34
2023-05-11T10:25:23.802Z,101619.84
2023-05-11T10:27:51.167Z,101611.53
2023-05-11T10:30:18.067Z,101609.66
2023-05-11T10:32:48.862Z,101612.03
2023-05-11T10:35:15.598Z,101620.44
2023-05-11T10:37:45.511Z,101615.16
2023-05-11T10:40:12.549Z,101617.91
2023-05-11T10:43:04.265Z,101623.59
2023-05-11T10:45:51.723Z,101621.50
2023-05-11T10:48:33.669Z,101616.59
2023-05-11T10:51:15.779Z,101619.00
2023-05-11T10:54:09.899Z,101640.34
2023-05-11T10:56:56.391Z,101633.44
2023-05-11T10:59:35.408Z,101638.75
2023-05-11T11:02:04.281Z,101643.84
2023-05-11T11:04:45.184Z,101633.00
2023-05-11T11:07:17.054Z,101634.13
2023-05-11T11:10:07.052Z,101632.38
2023-05-11T11:12:35.102Z,101630.47
2023-05-11T11:15:06.929Z,101627.69
2023-05-11T11:17:35.361Z,101639.47
2023-05-11T11:20:04.555Z,101638.41
2023-05-11T11:22:41.523Z,101635.00
2023-05-11T11:25:12.411Z,101629.44
2023-05-11T11:27:41.958Z,101627.25
2023-05-11T11:30:22.035Z,101625.31
2023-05-11T11:32:53.891Z,101626.44
2023-05-11T11:35:42.521Z,101617.94
2023-05-11T11:38:20.260Z,101617.34
2023-05-11T11:40:52.706Z,101616.91
2023-05-11T11:43:25.007Z,101623.47
2023-05-11T11:46:03.097Z,101623.59
2023-05-11T11:48:37.332Z,101625.25
2023-05-11T11:51:11.941Z,101637.19
2023-05-11T11:53:39.464Z,101631.88
2023-05-11T11:56:26.250Z,101633.06
2023-05-11T11:58:52.714Z,101636.31
2023-05-11T12:01:24.076Z,101636.78
2023-05-11T12:04:11.241Z,101637.97
2023-05-11T12:06:39.716Z,101638.88
2023-05-11T12:09:07.655Z,101639.31
2023-05-11T12:11:34.416Z,101637.97
2023-05-11T12:14:02.559Z,101641.97
2023-05-11T12:16:29.715Z,101641.97
2023-05-11T12:19:01.027Z,101639.63
2023-05-11T12:21:31.613Z,101633.75
2023-05-11T12:24:04.334Z,101629.97
2023-05-11T12:26:32.941Z,101620.28
2023-05-11T12:29:10.634Z,101616.22
2023-05-11T12:31:38.240Z,101616.50
2023-05-11T12:34:04.990Z,101623.50
2023-05-11T12:36:32.913Z,101625.81
2023-05-11T12:38:59.619Z,101616.84
2023-05-11T12:41:27.236Z,101624.75
2023-05-11T12:43:54.664Z,101631.59
2023-05-11T12:46:22.280Z,101625.78
2023-05-11T12:48:49.993Z,101633.38
2023-05-11T12:52:11.964Z,101630.25
2023-05-11T12:54:40.569Z,101630.81
2023-05-11T12:57:24.670Z,101629.16
2023-05-11T13:00:05.894Z,101629.00
2023-05-11T13:02:32.650Z,101626.75
2023-05-11T13:04:59.286Z,101633.06
2023-05-11T13:07:27.904Z,101632.19
2023-05-11T13:09:59.159Z,101627.72
2023-05-11T13:12:26.498Z,101626.25
2023-05-11T13:15:07.843Z,101632.81
2023-05-11T13:17:36.989Z,101623.00
2023-05-11T13:20:27.601Z,101627.72
2023-05-11T13:23:08.717Z,101632.22
2023-05-11T13:25:55.542Z,101629.97
2023-05-11T13:28:24.333Z,101627.28
2023-05-11T13:31:01.476Z,101625.78
2023-05-11T13:33:28.100Z,101626.81
2023-05-11T13:35:54.749Z,101621.13
2023-05-11T13:38:21.232Z,101631.75
2023-05-11T13:40:47.807Z,101623.69
2023-05-11T13:43:14.313Z,101630.25
2023-05-11T13:45:41.175Z,101627.41
2023-05-11T13:48:07.741Z,101624.13
2023-05-11T13:50:34.598Z,101618.69
2023-05-11T13:53:01.540Z,101618.22
2023-05-11T13:55:29.367Z,101614.50
2023-05-11T13:57:56.812Z,101617.94
2023-05-11T14:00:23.529Z,101618.97
2023-05-11T14:02:51.396Z,101614.50
2023-05-11T14:05:18.278Z,101620.16
2023-05-11T14:07:48.470Z,101615.25
2023-05-11T14:10:16.705Z,101610.81
2023-05-11T14:12:43.266Z,101608.13
2023-05-11T14:15:10.322Z,101611.06
2023-05-11T14:17:37.195Z,101611.38
2023-05-11T14:20:04.361Z,101607.47
2023-05-11T14:22:30.991Z,101610.91
2023-05-11T14:24:57.507Z,101604.50
2023-05-11T14:27:23.971Z,101602.09
2023-05-11T14:29:52.038Z,101607.78
2023-05-11T14:32:21.747Z,101606.25
2023-05-11T14:34:48.722Z,101608.88
2023-05-11T14:37:15.287Z,101616.75
2023-05-11T14:39:41.843Z,101612.53
2023-05-11T14:42:09.005Z,101616.25
2023-05-11T14:44:35.640Z,101612.00
2023-05-11T14:47:02.409Z,101612.84
2023-05-11T14:49:28.936Z,101618.16
2023-05-11T14:51:56.591Z,101615.75
2023-05-11T14:54:23.389Z,101621.72
2023-05-11T14:56:53.856Z,101614.88
2023-05-11T14:59:21.653Z,101612.78
2023-05-11T15:01:49.384Z,101615.19
2023-05-11T15:04:16.723Z,101609.34
2023-05-11T15:06:43.678Z,101613.88
2023-05-11T15:09:10.495Z,101623.44
2023-05-11T15:11:39.540Z,101619.75
2023-05-11T15:14:06.995Z,101614.09
2023-05-11T15:16:33.540Z,101615.94
2023-05-11T15:19:00.160Z,101624.66
2023-05-11T15:21:27.740Z,101617.59
2023-05-11T15:23:54.355Z,101616.13
2023-05-11T15:26:22.313Z,101617.69
2023-05-11T15:28:49.148Z,101617.22
2023-05-11T15:31:15.932Z,101620.13
2023-05-11T15:33:42.935Z,101623.72
2023-05-11T15:36:14.208Z,101625.03
2023-05-11T15:38:41.990Z,101630.31
2023-05-11T15:41:08.981Z,101627.34
2023-05-11T15:43:35.736Z,101636.06
2023-05-11T15:46:03.870Z,101643.50
2023-05-11T15:48:30.820Z,101640.81
2023-05-11T15:50:59.816Z,101644.91
2023-05-11T15:53:26.732Z,101645.44
2023-05-11T15:55:55.365Z,101644.63
2023-05-11T15:58:22.796Z,101640.72
2023-05-11T16:00:49.561Z,101643.13
2023-05-11T16:03:16.470Z,101644.06
2023-05-11T16:05:43.255Z,101644.81
2023-05-11T16:08:09.753Z,101638.50
2023-05-11T16:10:36.340Z,101633.66
2023-05-11T16:13:02.968Z,101628.56
2023-05-11T16:15:31.123Z,101637.09
2023-05-11T16:17:58.455Z,101631.44
2023-05-11T16:20:25.157Z,101627.53
2023-05-11T16:22:51.620Z,101617.50
2023-05-11T16:25:18.203Z,101627.63
2023-05-11T16:27:44.736Z,101621.31
2023-05-11T16:30:22.374Z,101623.44
2023-05-11T16:32:51.613Z,101614.63
2023-05-11T16:35:18.463Z,101623.44
2023-05-11T16:37:45.004Z,101618.72
2023-05-11T16:40:11.824Z,101620.22
2023-05-11T16:42:38.275Z,101615.56
2023-05-11T16:45:05.380Z,101626.25
2023-05-11T16:47:31.936Z,101629.31
2023-05-11T16:49:58.469Z,101623.44
2023-05-11T16:52:24.962Z,101626.06
2023-05-11T16:54:51.453Z,101618.75
2023-05-11T16:57:18.056Z,101632.38
2023-05-11T16:59:44.526Z,101625.50
2023-05-11T17:02:11.113Z,101630.50
2023-05-11T17:04:37.671Z,101634.59
2023-05-11T17:07:04.297Z,101636.53
2023-05-11T17:09:30.998Z,101634.75
2023-05-11T17:11:57.527Z,101635.69
2023-05-11T17:14:24.018Z,101643.66
2023-05-11T17:16:50.474Z,101643.72
2023-05-11T17:19:17.071Z,101647.13
2023-05-11T17:21:43.648Z,101652.31
2023-05-11T17:24:10.193Z,101646.03
2023-05-11T17:26:46.992Z,101644.25
2023-05-11T17:29:15.915Z,101651.03
2023-05-11T17:31:42.784Z,101657.03
2023-05-11T17:34:09.533Z,101657.19
2023-05-11T17:36:36.221Z,101658.28
2023-05-11T17:39:02.713Z,101650.09
2023-05-11T17:41:29.252Z,101657.41
2023-05-11T17:43:55.860Z,101655.34
2023-05-11T17:46:22.510Z,101655.91
2023-05-11T17:48:49.173Z,101658.88
2023-05-11T17:51:15.778Z,101654.44
2023-05-11T17:53:42.464Z,101654.88
2023-05-11T17:56:11.589Z,101657.56
2023-05-11T17:58:39.216Z,101665.03
2023-05-11T18:01:10.148Z,101661.31
2023-05-11T18:03:36.798Z,101662.22
2023-05-11T18:06:03.377Z,101661.63
2023-05-11T18:08:29.864Z,101662.81
2023-05-11T18:10:56.489Z,101655.97
2023-05-11T18:13:23.148Z,101658.34
2023-05-11T18:15:49.635Z,101663.13
2023-05-11T18:18:16.455Z,101660.47
2023-05-11T18:20:46.596Z,101659.91
2023-05-11T18:23:14.141Z,101662.59
2023-05-11T18:25:41.095Z,101657.03
2023-05-11T18:28:07.755Z,101659.88
2023-05-11T18:30:35.577Z,101661.22
2023-05-11T18:33:02.084Z,101652.16
2023-05-11T18:35:28.594Z,101662.13
2023-05-11T18:37:55.435Z,101661.84
2023-05-11T18:40:22.569Z,101663.78
2023-05-11T18:42:49.144Z,101669.00
2023-05-11T18:45:17.284Z,101667.38
2023-05-11T18:47:45.328Z,101670.63
2023-05-11T18:50:12.213Z,101673.94
2023-05-11T18:52:38.922Z,101675.59
2023-05-11T18:55:05.929Z,101682.88
2023-05-11T18:57:34.019Z,101684.22
2023-05-11T19:00:01.023Z,101685.25
2023-05-11T19:02:27.735Z,101683.63
2023-05-11T19:04:54.316Z,101683.91
2023-05-11T19:07:20.812Z,101685.69
2023-05-11T19:09:47.425Z,101693.00
2023-05-11T19:12:14.020Z,101699.25
2023-05-11T19:14:40.590Z,101697.16
2023-05-11T19:17:07.105Z,101697.31
2023-05-11T19:19:34.315Z,101697.44
2023-05-11T19:22:00.984Z,101701.47
2023-05-11T19:24:28.146Z,101706.81
2023-05-11T19:27:05.905Z,101710.38
2023-05-11T19:29:33.438Z,101710.06
2023-05-11T19:31:59.919Z,101722.44
2023-05-11T19:34:26.592Z,101714.22
2023-05-11T19:36:53.082Z,101717.66
2023-05-11T19:39:19.861Z,101720.75
2023-05-11T19:41:46.428Z,101719.41
2023-05-11T19:44:13.007Z,101732.47
2023-05-11T19:46:45.552Z,101729.97
2023-05-11T19:49:13.584Z,101726.34
2023-05-11T19:51:40.006Z,101732.91
2023-05-11T19:54:06.476Z,101736.47
2023-05-11T19:56:33.123Z,101743.56
2023-05-11T19:58:59.865Z,101741.31
2023-05-11T20:01:27.837Z,101742.22
2023-05-11T20:03:54.417Z,101747.69
2023-05-11T20:06:20.897Z,101752.88
2023-05-11T20:08:48.825Z,101749.13
2023-05-11T20:11:15.603Z,101759.53
2023-05-11T20:13:43.921Z,101745.09
2023-05-11T20:16:10.768Z,101757.13
2023-05-11T20:18:37.484Z,101756.22
2023-05-11T20:21:04.290Z,101759.31
2023-05-11T20:23:30.866Z,101764.38
2023-05-11T20:25:57.691Z,101759.56
2023-05-11T20:28:27.272Z,101758.31
2023-05-11T20:30:56.364Z,101761.13
2023-05-11T20:35:53.563Z,101761.50
2023-05-11T20:38:20.534Z,101766.69
2023-05-11T20:40:47.036Z,101760.81
2023-05-11T20:43:14.729Z,101759.13
2023-05-11T20:45:42.186Z,101761.16
2023-05-11T20:48:08.884Z,101762.78
2023-05-11T20:50:35.416Z,101760.53
2023-05-11T20:53:01.885Z,101757.53
2023-05-11T20:55:28.652Z,101757.88
2023-05-11T20:57:55.230Z,101755.94
2023-05-11T21:00:21.921Z,101752.09
2023-05-11T21:02:48.835Z,101751.03
2023-05-11T21:05:15.433Z,101752.09
2023-05-11T21:07:41.886Z,101756.25
2023-05-11T21:10:11.337Z,101755.94
2023-05-11T21:12:37.762Z,101765.88
2023-05-11T21:15:04.742Z,101756.91
2023-05-11T21:17:31.275Z,101763.13
2023-05-11T21:19:57.780Z,101757.50
2023-05-11T21:22:24.255Z,101754.06
2023-05-11T21:24:50.762Z,101760.88
2023-05-11T21:27:17.205Z,101764.00
2023-05-11T21:29:43.781Z,101756.81
2023-05-11T21:32:10.428Z,101764.09
2023-05-11T21:34:36.965Z,101761.13
2023-05-11T21:37:03.655Z,101761.97
2023-05-11T21:39:30.106Z,101767.75
2023-05-11T21:41:56.836Z,101765.50
2023-05-11T21:44:23.384Z,101766.38
2023-05-11T21:46:50.507Z,101763.69
2023-05-11T21:49:17.460Z,101772.47
2023-05-11T21:51:44.003Z,101773.75
2023-05-11T21:54:10.765Z,101767.03
2023-05-11T21:56:37.376Z,101778.88
2023-05-11T21:59:03.844Z,101767.44
2023-05-11T22:01:30.540Z,101772.78
2023-05-11T22:03:57.293Z,101769.38
2023-05-11T22:06:23.902Z,101776.66
2023-05-11T22:08:50.551Z,101777.50
2023-05-11T22:11:17.275Z,101776.44
2023-05-11T22:13:44.487Z,101770.03
2023-05-11T22:16:11.020Z,101775.38
2023-05-11T22:18:37.578Z,101767.03
2023-05-11T22:21:04.428Z,101767.47
2023-05-11T22:23:31.794Z,101772.94
2023-05-11T22:25:58.361Z,101772.63
2023-05-11T22:28:24.820Z,101769.31
2023-05-11T22:30:51.308Z,101774.34
2023-05-11T22:33:17.726Z,101769.84
2023-05-11T22:35:44.315Z,101771.75
2023-05-11T22:38:10.786Z,101765.69
2023-05-11T22:40:37.254Z,101765.34
2023-05-11T22:43:03.747Z,101765.03
2023-05-11T22:45:30.352Z,101763.09
2023-05-11T22:47:56.950Z,101763.22
2023-05-11T22:50:23.500Z,101767.50
2023-05-11T22:52:50.128Z,101767.59
2023-05-11T22:55:16.624Z,101772.28
2023-05-11T22:57:43.902Z,101765.13
2023-05-11T23:00:11.077Z,101768.97
2023-05-11T23:02:37.989Z,101758.72
2023-05-11T23:05:05.056Z,101767.28
2023-05-11T23:07:31.696Z,101764.81
2023-05-11T23:09:58.187Z,101764.06
2023-05-11T23:12:24.778Z,101768.03
2023-05-11T23:14:51.298Z,101754.44
2023-05-11T23:17:17.997Z,101767.16
2023-05-11T23:19:44.524Z,101766.50
2023-05-11T23:22:11.115Z,101771.94
2023-05-11T23:24:37.660Z,101763.59
2023-05-11T23:27:04.381Z,101762.94
2023-05-11T23:29:31.043Z,101765.41
2023-05-11T23:31:57.569Z,101765.84
2023-05-11T23:34:24.103Z,101769.34
2023-05-11T23:36:50.590Z,101762.53
2023-05-11T23:39:17.006Z,101765.69
2023-05-11T23:41:43.499Z,101761.97
2023-05-11T23:44:10.017Z,101762.81
2023-05-11T23:46:36.581Z,101768.13
2023-05-11T23:49:03.295Z,101758.63
2023-05-11T23:51:29.746Z,101763.28
2023-05-11T23:53:56.361Z,101759.97
2023-05-11T23:56:22.861Z,101758.47
2023-05-11T23:58:50.376Z,101754.72
